createdAt,value
2019-05-09T00:00:33.628Z,11.83
2019-05-09T00:03:03.478Z,11.83
2019-05-09T00:05:33.512Z,12.17
2019-05-09T00:08:03.461Z,11.63
2019-05-09T00:10:39.390Z,11.97
2019-05-09T00:13:03.362Z,11.67
2019-05-09T00:15:33.312Z,12.27
2019-05-09T00:18:03.898Z,11.47
2019-05-09T00:20:43.596Z,12.10
2019-05-09T00:23:13.541Z,11.67
2019-05-09T00:25:43.289Z,12.00
2019-05-09T00:28:13.547Z,11.80
2019-05-09T00:31:00.248Z,12.63
2019-05-09T00:33:30.742Z,11.83
2019-05-09T00:35:59.214Z,11.70
2019-05-09T00:38:47.061Z,11.97
2019-05-09T00:41:15.541Z,11.73
2019-05-09T00:43:45.645Z,12.00
2019-05-09T00:46:15.816Z,12.93
2019-05-09T00:49:00.759Z,11.93
2019-05-09T00:51:29.380Z,12.30
2019-05-09T00:53:57.860Z,11.93
2019-05-09T00:56:26.835Z,12.13
2019-05-09T00:58:55.342Z,12.37
2019-05-09T01:01:24.220Z,11.93
2019-05-09T01:03:53.599Z,11.87
2019-05-09T01:06:24.044Z,12.57
2019-05-09T01:08:53.673Z,12.37
2019-05-09T01:11:24.387Z,12.07
2019-05-09T01:13:54.380Z,12.13
2019-05-09T01:16:24.074Z,12.10
2019-05-09T01:18:54.355Z,12.30
2019-05-09T01:21:24.020Z,12.13
2019-05-09T01:23:54.019Z,12.30
2019-05-09T01:26:23.978Z,12.33
2019-05-09T01:28:54.184Z,12.53
2019-05-09T01:31:24.158Z,12.53
2019-05-09T01:34:00.825Z,12.43
2019-05-09T01:36:33.933Z,12.20
2019-05-09T01:39:03.322Z,11.87
2019-05-09T01:41:34.010Z,11.53
2019-05-09T01:44:04.109Z,11.87
2019-05-09T01:46:34.051Z,12.53
2019-05-09T01:49:03.270Z,12.83
2019-05-09T01:51:33.732Z,12.77
2019-05-09T01:54:03.801Z,12.70
2019-05-09T01:56:33.902Z,12.80
2019-05-09T01:59:03.122Z,12.60
2019-05-09T02:01:31.673Z,12.50
2019-05-09T02:04:00.188Z,13.33
2019-05-09T02:06:29.303Z,13.57
2019-05-09T02:08:58.685Z,13.00
2019-05-09T02:11:39.287Z,13.47
2019-05-09T02:13:57.456Z,13.73
2019-05-09T02:16:33.825Z,12.87
2019-05-09T02:19:04.152Z,13.80
2019-05-09T02:21:34.525Z,14.57
2019-05-09T02:24:03.486Z,14.10
2019-05-09T02:26:33.473Z,14.63
2019-05-09T02:29:03.286Z,14.23
2019-05-09T02:31:35.111Z,13.57
2019-05-09T02:34:04.887Z,14.20
2019-05-09T02:36:32.401Z,14.20
2019-05-09T02:39:01.163Z,14.70
2019-05-09T02:41:29.747Z,14.40
2019-05-09T02:43:58.648Z,14.77
2019-05-09T02:46:45.789Z,15.67
2019-05-09T02:49:18.905Z,14.70
2019-05-09T02:51:48.662Z,14.53
2019-05-09T02:54:19.173Z,15.83
2019-05-09T02:56:49.155Z,15.90
2019-05-09T02:59:19.088Z,16.33
2019-05-09T03:02:09.582Z,16.20
2019-05-09T03:04:39.144Z,15.93
2019-05-09T03:07:09.694Z,17.10
2019-05-09T03:09:38.853Z,15.40
2019-05-09T03:12:23.051Z,16.53
2019-05-09T03:14:38.572Z,16.10
2019-05-09T03:17:08.857Z,16.20
2019-05-09T03:19:38.607Z,15.73
2019-05-09T03:22:11.761Z,16.47
2019-05-09T03:24:40.359Z,16.17
2019-05-09T03:27:18.734Z,16.70
2019-05-09T03:29:49.072Z,16.27
2019-05-09T03:32:19.574Z,15.60
2019-05-09T03:34:47.927Z,17.07
2019-05-09T03:37:17.660Z,16.03
2019-05-09T03:39:47.814Z,16.30
2019-05-09T03:42:21.189Z,16.13
2019-05-09T03:44:47.697Z,16.47
2019-05-09T03:47:27.591Z,16.07
2019-05-09T03:50:10.037Z,16.83
2019-05-09T03:52:38.502Z,16.83
2019-05-09T03:55:10.473Z,16.30
2019-05-09T03:57:40.604Z,16.70
2019-05-09T04:00:09.769Z,17.57
2019-05-09T04:02:38.605Z,16.27
2019-05-09T04:05:08.093Z,16.93
2019-05-09T04:07:38.424Z,16.20
2019-05-09T04:10:07.882Z,16.47
2019-05-09T04:12:37.564Z,16.50
2019-05-09T04:15:08.406Z,16.93
2019-05-09T04:17:43.641Z,17.07
2019-05-09T04:20:13.595Z,17.07
2019-05-09T04:22:42.399Z,17.60
2019-05-09T04:25:12.856Z,16.73
2019-05-09T04:27:42.945Z,17.27
2019-05-09T04:30:11.641Z,17.13
2019-05-09T04:32:40.233Z,16.33
2019-05-09T04:35:08.764Z,16.50
2019-05-09T04:37:38.017Z,16.30
2019-05-09T04:40:08.277Z,16.67
2019-05-09T04:42:42.954Z,16.13
2019-05-09T04:45:20.759Z,15.80
2019-05-09T04:47:49.288Z,16.07
2019-05-09T04:50:23.491Z,16.20
2019-05-09T04:52:47.967Z,15.77
2019-05-09T04:55:18.289Z,15.60
2019-05-09T04:57:48.572Z,15.77
2019-05-09T05:00:18.911Z,15.90
2019-05-09T05:02:49.010Z,15.43
2019-05-09T05:05:18.113Z,15.07
2019-05-09T05:07:48.050Z,15.30
2019-05-09T05:10:18.403Z,14.83
2019-05-09T05:12:48.416Z,14.80
2019-05-09T05:15:17.930Z,15.23
2019-05-09T05:17:47.960Z,14.53
2019-05-09T05:20:18.634Z,14.67
2019-05-09T05:22:54.731Z,14.43
2019-05-09T05:25:23.264Z,14.83
2019-05-09T05:27:51.725Z,14.93
2019-05-09T05:30:20.292Z,14.47
2019-05-09T05:32:52.937Z,14.77
2019-05-09T05:35:28.301Z,14.17
2019-05-09T05:37:58.090Z,14.10
2019-05-09T05:40:31.889Z,14.13
2019-05-09T05:42:58.519Z,14.33
2019-05-09T05:45:28.542Z,14.50
2019-05-09T05:47:58.768Z,14.63
2019-05-09T05:50:28.071Z,13.97
2019-05-09T05:52:57.761Z,14.40
2019-05-09T05:55:27.476Z,15.03
2019-05-09T05:57:57.853Z,14.57
2019-05-09T06:00:28.596Z,14.40
2019-05-09T06:02:58.552Z,14.33
2019-05-09T06:05:27.884Z,13.77
2019-05-09T06:07:57.674Z,13.00
2019-05-09T06:10:28.785Z,14.43
2019-05-09T06:12:57.554Z,13.27
2019-05-09T06:15:28.603Z,15.00
2019-05-09T06:17:57.834Z,13.90
2019-05-09T06:20:28.160Z,14.40
2019-05-09T06:22:58.169Z,13.87
2019-05-09T06:25:30.618Z,14.03
2019-05-09T06:27:58.403Z,13.43
2019-05-09T06:30:30.742Z,13.90
2019-05-09T06:32:59.739Z,15.07
2019-05-09T06:35:28.778Z,14.77
2019-05-09T06:37:58.708Z,13.83
2019-05-09T06:40:28.760Z,13.20
2019-05-09T06:42:59.328Z,12.80
2019-05-09T06:45:48.667Z,12.40
2019-05-09T06:48:38.085Z,12.77
2019-05-09T06:51:07.345Z,12.40
2019-05-09T06:53:38.058Z,12.17
2019-05-09T06:56:07.425Z,12.27
2019-05-09T06:58:43.197Z,12.47
2019-05-09T07:01:29.708Z,12.77
2019-05-09T07:03:59.880Z,12.30
2019-05-09T07:06:38.017Z,11.87
2019-05-09T07:09:24.425Z,12.13
2019-05-09T07:11:52.924Z,11.97
2019-05-09T07:14:41.335Z,12.63
2019-05-09T07:17:08.320Z,12.60
2019-05-09T07:19:38.378Z,13.40
2019-05-09T07:22:09.249Z,12.60
2019-05-09T07:25:05.932Z,12.73
2019-05-09T07:27:29.532Z,13.17
2019-05-09T07:29:59.627Z,11.97
2019-05-09T07:32:41.540Z,12.63
2019-05-09T07:35:11.103Z,12.63
2019-05-09T07:37:39.554Z,13.20
2019-05-09T07:40:08.669Z,12.13
2019-05-09T07:42:39.038Z,12.40
2019-05-09T07:45:08.844Z,11.93
2019-05-09T07:47:38.778Z,11.73
2019-05-09T07:50:08.640Z,11.83
2019-05-09T07:52:38.802Z,11.57
2019-05-09T07:55:08.806Z,10.97
2019-05-09T07:57:45.627Z,10.43
2019-05-09T08:00:08.744Z,10.23
2019-05-09T08:02:38.667Z,10.63
2019-05-09T08:05:08.711Z,10.40
2019-05-09T08:07:38.122Z,10.17
2019-05-09T08:10:08.855Z,10.53
2019-05-09T08:12:38.891Z,10.33
2019-05-09T08:15:16.245Z,10.20
2019-05-09T08:17:38.440Z,10.13
2019-05-09T08:20:07.972Z,10.10
2019-05-09T08:22:40.889Z,10.40
2019-05-09T08:25:08.206Z,10.17
2019-05-09T08:27:37.856Z,9.90
2019-05-09T08:30:08.131Z,9.77
2019-05-09T08:32:37.715Z,10.50
2019-05-09T08:35:08.219Z,10.80
2019-05-09T08:37:49.840Z,9.87
2019-05-09T08:40:21.409Z,10.63
2019-05-09T08:42:48.571Z,11.00
2019-05-09T08:45:25.297Z,10.50
2019-05-09T08:47:48.528Z,10.60
2019-05-09T08:50:31.814Z,11.10
2019-05-09T08:53:00.343Z,10.90
2019-05-09T08:55:28.927Z,11.90
2019-05-09T08:57:58.647Z,11.13
2019-05-09T09:00:28.207Z,10.93
2019-05-09T09:02:57.563Z,11.87
2019-05-09T09:05:28.660Z,11.40
2019-05-09T09:07:57.863Z,11.50
2019-05-09T09:10:29.128Z,11.00
2019-05-09T09:12:58.095Z,11.03
2019-05-09T09:15:50.064Z,11.43
2019-05-09T09:17:57.927Z,10.77
2019-05-09T09:20:28.869Z,11.30
2019-05-09T09:22:58.255Z,11.30
2019-05-09T09:25:28.707Z,11.60
2019-05-09T09:27:58.429Z,10.73
2019-05-09T09:30:29.358Z,11.20
2019-05-09T09:32:58.671Z,11.27
2019-05-09T09:35:27.859Z,11.70
2019-05-09T09:37:58.022Z,12.10
2019-05-09T09:40:27.885Z,11.80
2019-05-09T09:42:58.044Z,12.23
2019-05-09T09:45:28.082Z,12.40
2019-05-09T09:47:59.074Z,12.30
2019-05-09T09:50:27.715Z,13.27
2019-05-09T09:52:58.907Z,13.80
2019-05-09T09:55:27.821Z,14.03
2019-05-09T09:57:57.872Z,14.43
2019-05-09T10:00:43.828Z,15.67
2019-05-09T10:03:12.570Z,15.93
2019-05-09T10:05:41.541Z,16.57
2019-05-09T10:08:13.819Z,16.77
2019-05-09T10:10:40.272Z,16.43
2019-05-09T10:13:10.829Z,17.20
2019-05-09T10:15:43.608Z,17.60
2019-05-09T10:18:13.742Z,18.30
2019-05-09T10:20:43.839Z,18.97
2019-05-09T10:23:18.083Z,19.73
2019-05-09T10:25:42.603Z,18.90
2019-05-09T10:28:11.147Z,20.03
2019-05-09T10:30:39.764Z,19.33
2019-05-09T10:33:09.222Z,19.83
2019-05-09T10:35:39.164Z,20.17
2019-05-09T10:38:08.921Z,20.43
2019-05-09T10:40:40.110Z,19.90
2019-05-09T10:43:34.499Z,21.63
2019-05-09T10:46:10.030Z,20.27
2019-05-09T10:48:39.371Z,21.00
2019-05-09T10:51:10.450Z,20.57
2019-05-09T10:53:38.584Z,20.87
2019-05-09T10:56:08.589Z,21.30
2019-05-09T10:58:37.492Z,20.33
2019-05-09T11:01:09.109Z,21.47
2019-05-09T11:03:37.648Z,20.77
2019-05-09T11:06:08.529Z,21.67
2019-05-09T11:08:38.101Z,21.30
2019-05-09T11:11:09.451Z,21.60
2019-05-09T11:13:38.950Z,21.13
2019-05-09T11:16:07.849Z,22.17
2019-05-09T11:18:36.436Z,21.43
2019-05-09T11:21:08.400Z,22.70
2019-05-09T11:23:36.156Z,22.77
2019-05-09T11:26:04.780Z,21.27
2019-05-09T11:28:33.401Z,22.60
2019-05-09T11:31:01.933Z,21.70
2019-05-09T11:33:30.399Z,20.43
2019-05-09T11:35:58.935Z,19.17
2019-05-09T11:38:34.781Z,19.27
2019-05-09T11:40:58.119Z,19.37
2019-05-09T11:43:29.643Z,18.70
2019-05-09T11:45:58.671Z,18.67
2019-05-09T11:48:28.373Z,18.30
2019-05-09T11:50:57.990Z,15.87
2019-05-09T11:53:28.861Z,15.43
2019-05-09T11:55:57.912Z,16.30
2019-05-09T11:58:28.019Z,16.77
2019-05-09T12:00:56.781Z,15.20
2019-05-09T12:03:25.243Z,15.60
2019-05-09T12:05:53.722Z,15.20
2019-05-09T12:08:22.222Z,15.07
2019-05-09T12:10:50.779Z,14.90
2019-05-09T12:13:19.321Z,13.43
2019-05-09T12:15:48.958Z,12.40
2019-05-09T12:18:17.731Z,12.40
2019-05-09T12:20:48.269Z,11.90
2019-05-09T12:23:19.644Z,11.00
2019-05-09T12:25:46.677Z,10.13
2019-05-09T12:28:15.184Z,9.60
2019-05-09T12:30:43.771Z,9.03
2019-05-09T12:33:12.312Z,8.47
2019-05-09T12:35:40.830Z,8.33
2019-05-09T12:38:09.408Z,8.27
2019-05-09T12:40:38.899Z,7.97
2019-05-09T12:43:09.142Z,7.73
2019-05-09T12:45:38.733Z,7.80
2019-05-09T12:48:13.795Z,6.80
2019-05-09T12:50:38.695Z,7.23
2019-05-09T12:53:14.671Z,6.70
2019-05-09T12:55:43.273Z,6.83
2019-05-09T12:58:30.015Z,7.40
2019-05-09T13:00:59.490Z,7.40
2019-05-09T13:03:29.066Z,6.73
2019-05-09T13:05:58.210Z,6.60
2019-05-09T13:08:27.870Z,7.60
2019-05-09T13:10:58.320Z,7.00
2019-05-09T13:13:30.241Z,6.30
2019-05-09T13:16:01.543Z,6.90
2019-05-09T13:18:48.963Z,7.27
2019-05-09T13:21:18.758Z,7.00
2019-05-09T13:23:51.965Z,6.77
2019-05-09T13:26:18.661Z,7.00
2019-05-09T13:28:48.915Z,7.50
2019-05-09T13:31:18.279Z,7.20
2019-05-09T13:33:48.674Z,6.80
2019-05-09T13:36:18.883Z,6.60
2019-05-09T13:38:57.830Z,6.53
2019-05-09T13:41:17.867Z,6.20
2019-05-09T13:43:53.455Z,6.27
2019-05-09T13:46:17.852Z,7.10
2019-05-09T13:49:05.952Z,6.43
2019-05-09T13:51:18.381Z,6.57
2019-05-09T13:53:48.439Z,6.80
2019-05-09T13:56:17.893Z,6.30
2019-05-09T13:58:48.663Z,6.57
2019-05-09T14:01:17.588Z,6.33
2019-05-09T14:03:48.820Z,6.10
2019-05-09T14:06:16.710Z,6.03
2019-05-09T14:08:48.593Z,6.25
2019-05-09T14:11:15.599Z,6.20
2019-05-09T14:13:44.130Z,5.92
2019-05-09T14:16:19.922Z,6.20
2019-05-09T14:18:42.874Z,5.60
2019-05-09T14:21:11.411Z,5.55
2019-05-09T14:23:51.714Z,5.70
2019-05-09T14:26:10.196Z,5.15
2019-05-09T14:28:38.663Z,5.10
2019-05-09T14:31:09.191Z,5.15
2019-05-09T14:33:38.916Z,5.85
2019-05-09T14:36:08.242Z,6.95
2019-05-09T14:38:39.171Z,7.25
2019-05-09T14:41:07.884Z,6.60
2019-05-09T14:43:39.351Z,7.03
2019-05-09T14:46:08.222Z,7.15
2019-05-09T14:48:36.958Z,6.70
2019-05-09T14:51:07.558Z,6.55
2019-05-09T14:53:35.740Z,6.78
2019-05-09T14:56:04.323Z,6.62
2019-05-09T14:58:32.866Z,6.70
2019-05-09T15:01:01.387Z,6.20
2019-05-09T15:03:30.357Z,6.25
2019-05-09T15:05:59.677Z,5.47
2019-05-09T15:08:29.744Z,6.00
2019-05-09T15:11:01.696Z,5.05
2019-05-09T15:13:30.711Z,6.30
2019-05-09T15:15:59.382Z,6.10
2019-05-09T15:18:28.070Z,5.75
2019-05-09T15:20:58.106Z,5.62
2019-05-09T15:23:29.228Z,5.50
2019-05-09T15:25:58.094Z,5.17
2019-05-09T15:28:28.955Z,6.42
2019-05-09T15:30:59.417Z,5.87
2019-05-09T15:33:27.634Z,5.67
2019-05-09T15:35:58.726Z,6.90
2019-05-09T15:38:28.729Z,7.03
2019-05-09T15:40:56.904Z,6.60
2019-05-09T15:43:25.553Z,6.37
2019-05-09T15:46:11.832Z,6.42
2019-05-09T15:48:40.406Z,6.87
2019-05-09T15:51:14.433Z,6.55
2019-05-09T15:53:45.317Z,6.00
2019-05-09T15:56:18.580Z,6.17
2019-05-09T15:58:44.950Z,6.17
2019-05-09T16:01:13.997Z,5.53
2019-05-09T16:03:48.797Z,6.25
2019-05-09T16:06:19.137Z,6.28
2019-05-09T16:08:47.849Z,6.00
2019-05-09T16:11:18.075Z,6.43
2019-05-09T16:13:47.989Z,6.05
2019-05-09T16:16:17.528Z,6.40
2019-05-09T16:18:48.606Z,6.87
2019-05-09T16:21:16.614Z,6.23
2019-05-09T16:23:45.204Z,6.80
2019-05-09T16:26:13.801Z,7.03
2019-05-09T16:28:42.349Z,7.67
2019-05-09T16:31:11.195Z,6.90
2019-05-09T16:33:39.766Z,7.23
2019-05-09T16:36:08.438Z,7.00
2019-05-09T16:38:42.931Z,7.17
2019-05-09T16:41:07.801Z,7.50
2019-05-09T16:43:38.144Z,6.17
2019-05-09T16:46:07.582Z,7.00
2019-05-09T16:48:36.356Z,7.47
2019-05-09T16:51:04.972Z,7.30
2019-05-09T16:53:33.551Z,7.40
2019-05-09T16:56:02.080Z,7.37
2019-05-09T16:58:30.793Z,7.03
2019-05-09T17:00:59.553Z,7.03
2019-05-09T17:03:28.467Z,5.87
2019-05-09T17:05:58.260Z,5.80
2019-05-09T17:08:28.208Z,4.67
2019-05-09T17:10:58.654Z,4.60
2019-05-09T17:13:28.940Z,5.03
2019-05-09T17:15:57.698Z,6.70
2019-05-09T17:18:28.291Z,7.23
2019-05-09T17:21:15.101Z,6.40
2019-05-09T17:23:31.630Z,7.10
2019-05-09T17:26:00.613Z,6.77
2019-05-09T17:28:29.238Z,6.87
2019-05-09T17:30:58.076Z,7.03
2019-05-09T17:33:28.751Z,7.63
2019-05-09T17:35:57.795Z,7.13
2019-05-09T17:38:27.919Z,6.93
2019-05-09T17:40:57.705Z,7.43
2019-05-09T17:43:27.879Z,9.47
2019-05-09T17:45:58.474Z,8.43
2019-05-09T17:48:28.523Z,7.83
2019-05-09T17:50:57.909Z,6.93
2019-05-09T17:53:29.235Z,6.40
2019-05-09T17:55:58.618Z,6.43
2019-05-09T17:58:33.064Z,6.80
2019-05-09T18:00:59.233Z,7.40
2019-05-09T18:03:29.169Z,7.13
2019-05-09T18:05:58.003Z,7.30
2019-05-09T18:08:28.387Z,6.93
2019-05-09T18:10:58.379Z,7.43
2019-05-09T18:13:29.539Z,7.43
2019-05-09T18:15:57.620Z,8.60
2019-05-09T18:18:28.406Z,8.13
2019-05-09T18:20:58.017Z,7.80
2019-05-09T18:23:28.397Z,7.90
2019-05-09T18:25:58.499Z,7.57
2019-05-09T18:28:29.341Z,8.17
2019-05-09T18:30:58.492Z,7.70
2019-05-09T18:33:34.716Z,7.00
2019-05-09T18:36:03.389Z,6.43
2019-05-09T18:38:34.053Z,5.80
2019-05-09T18:41:07.022Z,5.00
2019-05-09T18:43:33.612Z,4.63
2019-05-09T18:46:02.212Z,4.20
2019-05-09T18:48:32.185Z,4.47
2019-05-09T18:51:06.610Z,4.00
2019-05-09T18:53:35.560Z,4.43
2019-05-09T18:56:06.184Z,4.63
2019-05-09T18:58:41.152Z,4.37
2019-05-09T19:01:06.036Z,4.63
2019-05-09T19:03:36.488Z,5.43
2019-05-09T19:06:05.801Z,5.67
2019-05-09T19:08:34.622Z,6.67
2019-05-09T19:11:03.831Z,7.30
2019-05-09T19:13:33.070Z,8.50
2019-05-09T19:16:12.587Z,8.23
2019-05-09T19:18:42.957Z,8.37
2019-05-09T19:21:19.919Z,9.27
2019-05-09T19:23:53.648Z,9.80
2019-05-09T19:26:32.718Z,9.17
2019-05-09T19:29:01.422Z,9.03
2019-05-09T19:31:29.985Z,9.97
2019-05-09T19:33:58.537Z,10.10
2019-05-09T19:36:27.285Z,10.33
2019-05-09T19:38:55.996Z,11.10
2019-05-09T19:41:24.668Z,11.27
2019-05-09T19:43:53.740Z,11.83
2019-05-09T19:46:22.253Z,12.43
2019-05-09T19:48:50.760Z,13.27
2019-05-09T19:51:19.422Z,13.57
2019-05-09T19:53:48.203Z,13.70
2019-05-09T19:56:16.819Z,13.57
2019-05-09T19:58:45.666Z,12.27
2019-05-09T20:01:15.552Z,12.43
2019-05-09T20:03:44.524Z,12.63
2019-05-09T20:06:16.446Z,11.97
2019-05-09T20:08:43.373Z,11.67
2019-05-09T20:11:15.268Z,12.23
2019-05-09T20:13:57.664Z,12.33
2019-05-09T20:16:30.803Z,11.83
2019-05-09T20:18:59.296Z,12.03
2019-05-09T20:21:27.873Z,11.53
2019-05-09T20:23:57.951Z,11.30
2019-05-09T20:26:26.765Z,11.93
2019-05-09T20:28:55.408Z,11.80
2019-05-09T20:31:23.940Z,11.87
2019-05-09T20:33:52.541Z,11.53
2019-05-09T20:36:40.449Z,11.97
2019-05-09T20:39:09.395Z,12.73
2019-05-09T20:41:38.151Z,12.50
2019-05-09T20:44:06.915Z,12.00
2019-05-09T20:46:35.670Z,12.30
2019-05-09T20:49:04.520Z,12.57
2019-05-09T20:51:33.280Z,12.47
2019-05-09T20:54:01.999Z,12.37
2019-05-09T20:56:30.737Z,12.70
2019-05-09T20:58:59.613Z,12.83
2019-05-09T21:01:28.233Z,14.10
2019-05-09T21:04:00.212Z,14.53
2019-05-09T21:06:27.425Z,15.17
2019-05-09T21:08:56.090Z,15.17
2019-05-09T21:11:24.800Z,15.10
2019-05-09T21:13:53.535Z,14.87
2019-05-09T21:16:22.291Z,15.33
2019-05-09T21:18:50.983Z,15.87
2019-05-09T21:21:19.890Z,15.97
2019-05-09T21:23:48.667Z,16.03
2019-05-09T21:26:17.420Z,15.93
2019-05-09T21:28:46.222Z,16.30
2019-05-09T21:31:15.544Z,16.70
2019-05-09T21:33:44.220Z,16.17
2019-05-09T21:36:12.788Z,16.87
2019-05-09T21:38:41.256Z,15.03
2019-05-09T21:41:09.788Z,15.67
2019-05-09T21:43:38.389Z,17.57
2019-05-09T21:46:06.934Z,17.73
2019-05-09T21:48:38.426Z,18.57
2019-05-09T21:51:05.723Z,16.70
2019-05-09T21:53:40.947Z,16.73
2019-05-09T21:56:04.537Z,17.60
2019-05-09T21:58:33.080Z,17.60
2019-05-09T22:01:02.099Z,16.17
2019-05-09T22:03:30.634Z,15.90
2019-05-09T22:05:59.139Z,16.33
2019-05-09T22:08:27.770Z,16.33
2019-05-09T22:10:56.289Z,16.47
2019-05-09T22:13:24.887Z,16.40
2019-05-09T22:15:53.589Z,16.20
2019-05-09T22:18:22.278Z,15.27
2019-05-09T22:20:50.868Z,17.40
2019-05-09T22:23:19.330Z,15.87
2019-05-09T22:25:47.856Z,16.87
2019-05-09T22:28:16.360Z,15.73
2019-05-09T22:30:44.898Z,16.67
2019-05-09T22:33:13.366Z,15.60
2019-05-09T22:35:41.948Z,16.53
2019-05-09T22:38:10.584Z,16.90
2019-05-09T22:40:39.129Z,16.00
2019-05-09T22:43:07.780Z,17.83
2019-05-09T22:45:36.426Z,16.77
2019-05-09T22:48:05.104Z,17.63
2019-05-09T22:50:33.645Z,17.23
2019-05-09T22:53:02.189Z,17.37
2019-05-09T22:55:30.650Z,17.27
2019-05-09T22:57:59.151Z,17.53
2019-05-09T23:00:27.641Z,16.83
2019-05-09T23:02:56.160Z,17.37
2019-05-09T23:05:24.734Z,16.87
2019-05-09T23:07:53.267Z,18.67
2019-05-09T23:10:21.731Z,17.80
2019-05-09T23:12:50.314Z,19.30
2019-05-09T23:15:19.722Z,19.37
2019-05-09T23:17:48.189Z,18.27
2019-05-09T23:20:33.921Z,19.77
2019-05-09T23:23:04.095Z,19.20
2019-05-09T23:25:32.625Z,18.03
2019-05-09T23:28:01.140Z,18.37
2019-05-09T23:30:29.677Z,18.60
2019-05-09T23:32:58.192Z,18.93
2019-05-09T23:35:26.750Z,18.23
2019-05-09T23:37:55.214Z,18.80
2019-05-09T23:40:23.748Z,16.90
2019-05-09T23:42:52.235Z,18.43
2019-05-09T23:45:20.716Z,17.37
2019-05-09T23:47:49.176Z,17.90
2019-05-09T23:50:17.686Z,17.70
2019-05-09T23:52:46.208Z,17.90
2019-05-09T23:55:32.657Z,18.00
2019-05-09T23:58:19.443Z,17.73
